メインページ
METAR-TAF:

METAR-TAF

空港 :

フィウミチーノ空港

ローマ・フィウミチーノ, イタリア

緯度: 41-48N, 経度: 012-14E, 海抜: 2m

現時点の気象観測

当レポートは32分前の10:20(UTC)に作成
北/北東の風 5kt、北/北西から東/北東の間で変化する
気温 22°C
湿度 65%
気圧 1012 hPa
視程10km以上
高度2500ftの雲はほとんどない
高度3000ftの雲は散在している
小霧雨

METAR: LIRF 211020Z 03005KT 340V060 9999 -DZ FEW025 SCT030 22/15 Q1012 NOSIG

時間: 12:52 (10:52 UTC)

予報

当レポートは5時間52分前の05:00(UTC)に作成
予報は21日の 06時(UTC)から 22日の 12時(UTC)まで有効
変向風 5kt
視程10km以上
高度3000ftの雲は散在している
21日の 06時(UTC)から 21日の 08時(UTC)まで一時的に
21日の 09時(UTC)から 21日の 11時(UTC)まで徐々に
西/南西の風 10kt
21日の 10時(UTC)から 21日の 15時(UTC)まで一時的に
視程: 4000m
にわか雨
21日の 18時(UTC)から 21日の 20時(UTC)まで徐々に
変向風 5kt
21日の 18時(UTC)から 21日の 21時(UTC)まで一時的に
視程: 4000m
にわか雨
22日の 09時(UTC)から 22日の 11時(UTC)まで徐々に
の風 12kt

TAF: LIRF 210500Z 2106/2212 VRB05KT 9999 SCT030 TEMPO 2106/2108 RA BECMG 2109/2111 25010KT TEMPO 2110/2115 4000 SHRA BECMG 2118/2120 VRB05KT TEMPO 2118/2121 4000 SHRA BECMG 2209/2211 18012KT

4,000以上の空港の気象観測と天気予報(METAR報とTAF報)

利用可能な観測所は地図上に黄色い丸と赤い丸で示す。

丸の上にカーソルを重ねると観測所名を参照できる。

次にクリックすると気象観測と天気予報を参照できる。

マップの切り替え:黒色「×」印の緑ボタンをクリックして拡大、「-」印の緑ボタンをクリックして縮小、緑色の三角印をクリックして隣りの地図に切り替え


METAR-TAF: